Flight Track Log - Related Links

Times and Time Zones

All times are in EDT time to prevent confusion due to time zone crossing. See the QTR889 flight status page for this flight to view local times or setup timezone preferences in your user account.

Time Position Orientation Groundspeed Altitude Reporting Facility
EDT Latitude Longitude Course Direction KTS MPH feet Rate Location/Type
12:34PM 31.0062 121.4977 283° West 314 361 11,500  Level FlightAware ADS-B (ZSSS / SHA)
12:34PM 31.0160 121.4471 283° West 329 379 12,200 1,241 Climbing FlightAware ADS-B (ZSSS / SHA)
12:35PM 31.0249 121.4010 283° West 349 402 12,700 1,417 Climbing FlightAware ADS-B (ZSSS / SHA)
12:36PM 31.0420 121.3131 283° West 367 422 13,900 1,737 Climbing FlightAware ADS-B (ZSSS / SHA)
12:36PM 31.0539 121.2513 283° West 372 428 14,900 1,839 Climbing FlightAware ADS-B (ZSSS / SHA)
12:37PM 31.0684 121.1936 297° West 384 442 15,800 1,773 Climbing FlightAware ADS-B (ZSSS / SHA)
12:37PM 31.0827 121.1715 314° West 391 450 16,200 1,636 Climbing FlightAware ADS-B (ZSSS / SHA)
12:37PM 31.1100 121.1503 338° Northwest 405 466 16,700 1,789 Climbing FlightAware ADS-B (ZSSS / SHA)
12:38PM 31.1824 121.1378 357° North 414 476 17,900 1,846 Climbing FlightAware ADS-B (ZSSS / SHA)
12:38PM 31.2363 121.1350 358° North 419 482 18,700 1,525 Climbing FlightAware ADS-B (ZSSS / SHA)
12:39PM 31.2853 121.1320 357° North 425 489 19,400 1,200 Climbing FlightAware ADS-B (ZSSS / SHA)
12:39PM 31.3345 121.1282 356° North 428 493 19,700 522 Climbing FlightAware ADS-B (ZSSS / SHA)
12:40PM 31.4059 121.1216 352° North 425 489 20,000 360 Climbing FlightAware ADS-B (ZSSS / SHA)
12:43PM 31.4641 120.8303 283° West  Level Estimated
12:44PM 31.4867 120.7159 283° West  Level Estimated
12:45PM 31.5093 120.6015 283° West  Level Estimated
12:46PM 31.5317 120.4870 283° West  Level Estimated
12:47PM 31.5541 120.3725 283° West  Level Estimated
12:48PM 31.5763 120.2579 283° West  Level Estimated
12:49PM 31.5985 120.1432 283° West  Level Estimated
12:50PM 31.6205 120.0285 283° West  Level Estimated
12:51PM 31.6424 119.9138 283° West  Level Estimated
12:52PM 31.6643 119.7990 283° West  Level Estimated
12:53PM 31.6860 119.6841 283° West  Level Estimated
12:54PM 31.7092 119.5608 283° West  Level Estimated
12:55PM 31.7323 119.4374 282° West  Level Estimated
12:56PM 31.7553 119.3140 282° West  Level Estimated
12:57PM 31.7781 119.1905 282° West  Level Estimated
12:58PM 31.8008 119.0669 282° West  Level Estimated
12:59PM 31.8234 118.9433 282° West  Level Estimated
01:00PM 31.8459 118.8196 282° West  Level Estimated
01:01PM 31.8683 118.6959 282° West  Level Estimated
01:02PM 31.8906 118.5721 282° West  Level Estimated
01:03PM 31.9127 118.4482 282° West  Level Estimated
01:04PM 31.9347 118.3243 282° West  Level Estimated
01:05PM 31.9566 118.2004 282° West  Level Estimated
01:06PM 31.9783 118.0763 282° West  Level Estimated
01:07PM 32.0000 117.9522 282° West  Level Estimated
01:08PM 32.0215 117.8281 282° West  Level Estimated
01:09PM 32.0429 117.7039 282° West  Level Estimated
01:10PM 32.0642 117.5796 281° West  Level Estimated
01:11PM 32.0854 117.4553 281° West  Level Estimated
01:12PM 32.1064 117.3309 281° West  Level Estimated
01:13PM 32.1273 117.2064 281° West  Level Estimated
01:14PM 32.1481 117.0819 281° West  Level Estimated
01:15PM 32.1688 116.9574 281° West  Level Estimated
01:16PM 32.1894 116.8328 281° West  Level Estimated
01:17PM 32.2098 116.7081 281° West  Level Estimated
01:18PM 32.2301 116.5834 281° West  Level Estimated
01:19PM 32.2503 116.4586 281° West  Level Estimated
01:20PM 32.2704 116.3338 281° West  Level Estimated
01:21PM 32.2903 116.2089 281° West  Level Estimated
01:22PM 32.3101 116.0839 281° West  Level Estimated
01:23PM 32.3298 115.9589 281° West  Level Estimated
01:24PM 32.3494 115.8339 281° West  Level Estimated
01:25PM 32.3688 115.7088 280° West  Level Estimated
01:26PM 32.3882 115.5836 280° West  Level Estimated
01:27PM 32.4074 115.4584 280° West  Level Estimated
01:28PM 32.4264 115.3331 280° West  Level Estimated
01:29PM 32.4454 115.2078 280° West  Level Estimated
01:30PM 32.4642 115.0824 280° West  Level Estimated
01:31PM 32.4829 114.9570 280° West  Level Estimated
01:32PM 32.5015 114.8315 280° West  Level Estimated
01:33PM 32.5200 114.7060 280° West  Level Estimated
01:34PM 32.5383 114.5804 280° West  Level Estimated
01:35PM 32.5565 114.4548 280° West  Level Estimated
01:36PM 32.5746 114.3291 280° West  Level Estimated
01:37PM 32.5925 114.2034 280° West  Level Estimated
01:38PM 32.6104 114.0776 280° West  Level Estimated
01:39PM 32.6281 113.9518 280° West  Level Estimated
01:40PM 32.6456 113.8259 279° West  Level Estimated
01:41PM 32.6631 113.6999 279° West  Level Estimated
01:42PM 32.6804 113.5740 279° West  Level Estimated
01:43PM 32.6976 113.4479 279° West  Level Estimated
01:44PM 32.7147 113.3219 279° West  Level Estimated
01:45PM 32.7317 113.1957 279° West  Level Estimated
01:46PM 32.7485 113.0695 279° West  Level Estimated
01:47PM 32.7652 112.9433 279° West  Level Estimated
01:48PM 32.7818 112.8171 279° West  Level Estimated
01:49PM 32.7982 112.6907 279° West  Level Estimated
01:50PM 32.8145 112.5644 279° West  Level Estimated
01:51PM 32.8307 112.4380 279° West  Level Estimated
01:52PM 32.8468 112.3115 279° West  Level Estimated
01:53PM 32.8627 112.1850 279° West  Level Estimated
01:54PM 32.8785 112.0585 278° West  Level Estimated
01:55PM 32.8942 111.9319 278° West  Level Estimated
01:56PM 32.9098 111.8053 278° West  Level Estimated
01:57PM 32.9252 111.6786 278° West  Level Estimated
01:58PM 32.9405 111.5518 278° West  Level Estimated
01:59PM 32.9557 111.4251 278° West  Level Estimated
02:00PM 32.9707 111.2983 278° West  Level Estimated
02:01PM 32.9856 111.1714 278° West  Level Estimated
02:02PM 33.0004 111.0445 278° West  Level Estimated
02:03PM 33.0150 110.9176 278° West  Level Estimated
02:04PM 33.0296 110.7906 278° West  Level Estimated
02:05PM 33.0440 110.6636 278° West  Level Estimated
02:06PM 33.0583 110.5365 278° West  Level Estimated
02:07PM 33.0724 110.4094 278° West  Level Estimated
02:08PM 33.0864 110.2823 278° West  Level Estimated
02:09PM 33.1003 110.1551 277° West  Level Estimated
02:10PM 33.1140 110.0279 277° West  Level Estimated
02:11PM 33.1277 109.9006 277° West  Level Estimated
02:12PM 33.1412 109.7733 277° West  Level Estimated
02:13PM 33.1545 109.6459 277° West  Level Estimated
02:14PM 33.1678 109.5186 277° West  Level Estimated
02:15PM 33.1809 109.3911 277° West  Level Estimated
02:16PM 33.1939 109.2637 277° West  Level Estimated
02:17PM 33.2067 109.1362 277° West  Level Estimated
02:18PM 33.2194 109.0087 277° West  Level Estimated
02:19PM 33.2320 108.8811 277° West  Level Estimated
02:20PM 33.2445 108.7535 277° West  Level Estimated
02:21PM 33.2568 108.6258 277° West  Level Estimated
02:22PM 33.2690 108.4982 277° West  Level Estimated
02:23PM 33.2811 108.3704 276° West  Level Estimated
02:24PM 33.2930 108.2427 276° West  Level Estimated
02:25PM 33.3048 108.1149 276° West  Level Estimated
02:26PM 33.3165 107.9871 276° West  Level Estimated
02:27PM 33.3280 107.8592 276° West  Level Estimated
02:28PM 33.3394 107.7314 276° West  Level Estimated
02:29PM 33.3507 107.6034 276° West  Level Estimated
02:30PM 33.3619 107.4755 276° West  Level Estimated
02:31PM 33.3729 107.3475 276° West  Level Estimated
02:32PM 33.3838 107.2195 276° West  Level Estimated
02:33PM 33.3945 107.0914 276° West  Level Estimated
02:34PM 33.4051 106.9633 276° West  Level Estimated
02:35PM 33.4156 106.8352 276° West  Level Estimated
02:36PM 33.4260 106.7071 276° West  Level Estimated
02:37PM 33.4362 106.5789 275° West  Level Estimated
02:38PM 33.4463 106.4507 275° West  Level Estimated
02:39PM 33.4563 106.3225 275° West  Level Estimated
02:40PM 33.4661 106.1942 275° West  Level Estimated
02:41PM 33.4758 106.0659 275° West  Level Estimated
02:42PM 33.4854 105.9376 275° West  Level Estimated
02:43PM 33.4948 105.8093 275° West  Level Estimated
02:44PM 33.5041 105.6809 275° West  Level Estimated
02:45PM 33.5133 105.5525 275° West  Level Estimated
02:46PM 33.5223 105.4241 275° West  Level Estimated
02:47PM 33.5312 105.2956 275° West  Level Estimated
02:48PM 33.5400 105.1671 275° West  Level Estimated
02:49PM 33.5487 105.0386 275° West  Level Estimated
02:50PM 33.5572 104.9101 275° West  Level Estimated
02:51PM 33.5655 104.7815 275° West  Level Estimated
02:52PM 33.5738 104.6529 274° West  Level Estimated
02:53PM 33.5819 104.5243 274° West  Level Estimated
02:54PM 33.5899 104.3957 274° West  Level Estimated
02:55PM 33.5977 104.2671 274° West  Level Estimated
02:56PM 33.6054 104.1384 274° West  Level Estimated
02:57PM 33.6130 104.0097 274° West  Level Estimated
02:58PM 33.6204 103.8809 274° West  Level Estimated
02:59PM 33.6278 103.7522 274° West  Level Estimated
03:00PM 33.6349 103.6234 274° West  Level Estimated
03:01PM 33.6420 103.4946 274° West  Level Estimated
03:02PM 33.6489 103.3658 274° West  Level Estimated
03:03PM 33.6557 103.2370 274° West  Level Estimated
03:04PM 33.6623 103.1081 274° West  Level Estimated
03:05PM 33.6688 102.9793 274° West  Level Estimated
03:06PM 33.6752 102.8504 273° West  Level Estimated
03:07PM 33.6814 102.7215 273° West  Level Estimated
03:08PM 33.6875 102.5926 273° West  Level Estimated
03:09PM 33.6935 102.4636 273° West  Level Estimated
03:10PM 33.6994 102.3346 273° West  Level Estimated
03:11PM 33.7051 102.2057 273° West  Level Estimated
03:12PM 33.7106 102.0767 273° West  Level Estimated
03:13PM 33.7161 101.9476 273° West  Level Estimated
03:14PM 33.7214 101.8186 273° West  Level Estimated
03:15PM 33.7266 101.6896 273° West  Level Estimated
03:16PM 33.7316 101.5605 273° West  Level Estimated
03:17PM 33.7365 101.4314 273° West  Level Estimated
03:18PM 33.7412 101.3024 273° West  Level Estimated
03:19PM 33.7459 101.1732 273° West  Level Estimated
03:20PM 33.7504 101.0441 272° West  Level Estimated
03:21PM 33.7547 100.9150 272° West  Level Estimated
03:22PM 33.7590 100.7859 272° West  Level Estimated
03:23PM 33.7631 100.6567 272° West  Level Estimated
03:24PM 33.7670 100.5275 272° West  Level Estimated
03:25PM 33.7709 100.3984 272° West  Level Estimated
03:26PM 33.7745 100.2691 272° West  Level Estimated
03:27PM 33.7781 100.1400 272° West  Level Estimated
03:28PM 33.7815 100.0107 272° West  Level Estimated
03:29PM 33.7848 99.8815 272° West  Level Estimated
03:30PM 33.7880 99.7523 272° West  Level Estimated
03:31PM 33.7910 99.6230 272° West  Level Estimated
03:32PM 33.7939 99.4938 272° West  Level Estimated
03:33PM 33.7966 99.3645 272° West  Level Estimated
03:34PM 33.7992 99.2353 271° West  Level Estimated
03:35PM 33.8017 99.1060 271° West  Level Estimated
03:36PM 33.8040 98.9767 271° West  Level Estimated
03:37PM 33.8063 98.8474 271° West  Level Estimated
03:38PM 33.8083 98.7181 271° West  Level Estimated
03:39PM 33.8103 98.5888 271° West  Level Estimated
03:40PM 33.8121 98.4595 271° West  Level Estimated
03:41PM 33.8137 98.3302 271° West  Level Estimated
03:42PM 33.8153 98.2009 271° West  Level Estimated
03:43PM 33.8167 98.0715 271° West  Level Estimated
03:44PM 33.8179 97.9422 271° West  Level Estimated
03:45PM 33.8191 97.8129 271° West  Level Estimated
03:46PM 33.8200 97.6835 271° West  Level Estimated
03:47PM 33.8209 97.5542 270° West  Level Estimated
03:48PM 33.8216 97.4249 270° West  Level Estimated
03:49PM 33.8222 97.2955 270° West  Level Estimated
03:50PM 33.8227 97.1662 270° West  Level Estimated
03:51PM 33.8230 97.0368 270° West  Level Estimated
03:52PM 33.8232 96.9075 270° West  Level Estimated
03:53PM 33.8232 96.7782 270° West  Level Estimated
03:54PM 33.8231 96.6488 270° West  Level Estimated
03:55PM 33.8229 96.5195 270° West  Level Estimated
03:56PM 33.8226 96.3901 270° West  Level Estimated
03:57PM 33.8221 96.2608 270° West  Level Estimated
03:58PM 33.8214 96.1314 270° West  Level Estimated
03:59PM 33.8207 96.0021 270° West  Level Estimated
04:00PM 33.8198 95.8728 270° West  Level Estimated
04:01PM 33.8188 95.7434 269° West  Level Estimated
04:02PM 33.8176 95.6141 269° West  Level Estimated
04:03PM 33.8163 95.4848 269° West  Level Estimated
04:04PM 33.8149 95.3555 269° West  Level Estimated
04:05PM 33.8133 95.2262 269° West  Level Estimated
04:06PM 33.8116 95.0968 269° West  Level Estimated
04:07PM 33.8097 94.9675 269° West  Level Estimated
04:08PM 33.8078 94.8382 269° West  Level Estimated
04:09PM 33.8056 94.7089 269° West  Level Estimated
04:10PM 33.8034 94.5796 269° West  Level Estimated
04:11PM 33.8010 94.4504 269° West  Level Estimated
04:12PM 33.7985 94.3211 269° West  Level Estimated
04:13PM 33.7959 94.1918 269° West  Level Estimated
04:14PM 33.7931 94.0626 269° West  Level Estimated
04:15PM 33.7901 93.9333 268° West  Level Estimated
04:16PM 33.7871 93.8041 268° West  Level Estimated
04:17PM 33.7839 93.6748 268° West  Level Estimated
04:18PM 33.7806 93.5456 268° West  Level Estimated
04:19PM 33.7771 93.4164 268° West  Level Estimated
04:20PM 33.7735 93.2872 268° West  Level Estimated
04:21PM 33.7698 93.1580 268° West  Level Estimated
04:22PM 33.7659 93.0288 268° West  Level Estimated
04:23PM 33.7620 92.8997 268° West  Level Estimated
04:24PM 33.7578 92.7705 268° West  Level Estimated
04:25PM 33.7536 92.6414 268° West  Level Estimated
04:26PM 33.7491 92.5123 268° West  Level Estimated
04:27PM 33.7446 92.3831 268° West  Level Estimated
04:28PM 33.7399 92.2540 268° West  Level Estimated
04:29PM 33.7351 92.1250 267° West  Level Estimated
04:30PM 33.7302 91.9959 267° West  Level Estimated
04:31PM 33.7251 91.8668 267° West  Level Estimated
04:32PM 33.7199 91.7378 267° West  Level Estimated
04:33PM 33.7146 91.6088 267° West  Level Estimated
04:34PM 33.7091 91.4798 267° West  Level Estimated
04:35PM 33.7035 91.3508 267° West  Level Estimated
04:36PM 33.6978 91.2218 267° West  Level Estimated
04:37PM 33.6919 91.0928 267° West  Level Estimated
04:38PM 33.6859 90.9639 267° West  Level Estimated
04:39PM 33.6797 90.8350 267° West  Level Estimated
04:40PM 33.6734 90.7061 267° West  Level Estimated
04:41PM 33.6670 90.5772 267° West  Level Estimated
04:42PM 33.6605 90.4483 267° West  Level Estimated
04:43PM 33.6538 90.3195 266° West  Level Estimated
04:44PM 33.6470 90.1906 266° West  Level Estimated
04:45PM 33.6400 90.0618 266° West  Level Estimated
04:46PM 33.6330 89.9331 266° West  Level Estimated
04:47PM 33.6258 89.8043 266° West  Level Estimated
04:48PM 33.6184 89.6756 266° West  Level Estimated
04:49PM 33.6109 89.5468 266° West  Level Estimated
04:50PM 33.6033 89.4181 266° West  Level Estimated
04:51PM 33.5956 89.2895 266° West  Level Estimated
04:52PM 33.5877 89.1608 266° West  Level Estimated
04:53PM 33.5797 89.0322 266° West  Level Estimated
04:54PM 33.5715 88.9036 266° West  Level Estimated
04:55PM 33.5632 88.7750 266° West  Level Estimated
04:56PM 33.5548 88.6465 266° West  Level Estimated
04:57PM 33.5463 88.5179 265° West  Level Estimated
04:58PM 33.5376 88.3894 265° West  Level Estimated
04:59PM 33.5288 88.2610 265° West  Level Estimated
05:00PM 33.5199 88.1325 265° West  Level Estimated
05:01PM 33.5108 88.0041 265° West  Level Estimated
05:02PM 33.5016 87.8757 265° West  Level Estimated
05:03PM 33.4922 87.7473 265° West  Level Estimated
05:04PM 33.4827 87.6190 265° West  Level Estimated
05:05PM 33.4731 87.4907 265° West  Level Estimated
05:06PM 33.4634 87.3624 265° West  Level Estimated
05:07PM 33.4535 87.2341 265° West  Level Estimated
05:08PM 33.4435 87.1059 265° West  Level Estimated
05:09PM 33.4334 86.9777 265° West  Level Estimated
05:10PM 33.4231 86.8496 265° West  Level Estimated
05:11PM 33.4127 86.7214 264° West  Level Estimated
05:12PM 33.4022 86.5933 264° West  Level Estimated
05:13PM 33.3915 86.4652 264° West  Level Estimated
05:14PM 33.3808 86.3372 264° West  Level Estimated
05:15PM 33.3698 86.2092 264° West  Level Estimated
05:16PM 33.3588 86.0812 264° West  Level Estimated
05:17PM 33.3476 85.9533 264° West  Level Estimated
05:18PM 33.3363 85.8254 264° West  Level Estimated
05:19PM 33.3248 85.6975 264° West  Level Estimated
05:20PM 33.3133 85.5696 264° West  Level Estimated
05:21PM 33.3015 85.4418 264° West  Level Estimated
05:22PM 33.2897 85.3141 264° West  Level Estimated
05:23PM 33.2777 85.1863 264° West  Level Estimated
05:24PM 33.2656 85.0586 264° West  Level Estimated
05:25PM 33.2534 84.9310 263° West  Level Estimated
05:26PM 33.2410 84.8033 263° West  Level Estimated
05:27PM 33.2285 84.6757 263° West  Level Estimated
05:28PM 33.2159 84.5482 263° West  Level Estimated
05:29PM 33.2032 84.4206 263° West  Level Estimated
05:30PM 33.1903 84.2932 263° West  Level Estimated
05:31PM 33.1773 84.1657 263° West  Level Estimated
05:32PM 33.1641 84.0383 263° West  Level Estimated
05:33PM 33.1508 83.9109 263° West  Level Estimated
05:34PM 33.1374 83.7836 263° West  Level Estimated
05:35PM 33.1239 83.6563 263° West  Level Estimated
05:36PM 33.1102 83.5291 263° West  Level Estimated
05:37PM 33.0965 83.4018 263° West  Level Estimated
05:38PM 33.0825 83.2747 263° West  Level Estimated
05:39PM 33.0685 83.1475 263° West  Level Estimated
05:40PM 33.0543 83.0204 262° West  Level Estimated
05:41PM 33.0400 82.8934 262° West  Level Estimated
05:42PM 33.0256 82.7664 262° West  Level Estimated
05:43PM 33.0110 82.6394 262° West  Level Estimated
05:44PM 32.9963 82.5125 262° West  Level Estimated
05:45PM 32.9815 82.3856 262° West  Level Estimated
05:46PM 32.9665 82.2588 262° West  Level Estimated
05:47PM 32.9515 82.1320 262° West  Level Estimated
05:48PM 32.9363 82.0052 262° West  Level Estimated
05:49PM 32.9209 81.8785 262° West  Level Estimated
05:50PM 32.9055 81.7518 262° West  Level Estimated
05:51PM 32.8899 81.6252 262° West  Level Estimated
05:52PM 32.8741 81.4986 262° West  Level Estimated
05:53PM 32.8583 81.3721 262° West  Level Estimated
05:54PM 32.8423 81.2456 261° West  Level Estimated
05:55PM 32.8262 81.1192 261° West  Level Estimated
05:56PM 32.8100 80.9928 261° West  Level Estimated
05:57PM 32.7937 80.8664 261° West  Level Estimated
05:58PM 32.7772 80.7401 261° West  Level Estimated
05:59PM 32.7606 80.6139 261° West  Level Estimated
06:00PM 32.7438 80.4876 261° West  Level Estimated
06:01PM 32.7270 80.3615 261° West  Level Estimated
06:02PM 32.7100 80.2354 261° West  Level Estimated
06:03PM 32.6929 80.1093 261° West  Level Estimated
06:04PM 32.6757 79.9833 261° West  Level Estimated
06:05PM 32.6583 79.8573 261° West  Level Estimated
06:06PM 32.6408 79.7314 261° West  Level Estimated
06:07PM 32.6232 79.6055 261° West  Level Estimated
06:08PM 32.6054 79.4797 261° West  Level Estimated
06:09PM 32.5876 79.3540 260° West  Level Estimated
06:10PM 32.5696 79.2282 260° West  Level Estimated
06:11PM 32.5515 79.1026 260° West  Level Estimated
06:12PM 32.5332 78.9770 260° West  Level Estimated
06:13PM 32.5149 78.8514 260° West  Level Estimated
06:14PM 32.4964 78.7259 260° West  Level Estimated
06:15PM 32.4778 78.6004 260° West  Level Estimated
06:16PM 32.4590 78.4750 260° West  Level Estimated
06:17PM 32.4402 78.3496 260° West  Level Estimated
06:18PM 32.4212 78.2243 260° West  Level Estimated
06:19PM 32.4021 78.0991 260° West  Level Estimated
06:20PM 32.3828 77.9739 260° West  Level Estimated
06:21PM 32.3635 77.8487 260° West  Level Estimated
06:22PM 32.3440 77.7236 260° West  Level Estimated
06:23PM 32.3244 77.5986 260° West  Level Estimated
06:24PM 32.3046 77.4736 259° West  Level Estimated
06:25PM 32.2848 77.3487 259° West  Level Estimated
06:26PM 32.2648 77.2238 259° West  Level Estimated
06:27PM 32.2447 77.0990 259° West  Level Estimated
06:28PM 32.2245 76.9742 259° West  Level Estimated
06:29PM 32.2042 76.8495 259° West  Level Estimated
06:30PM 32.1837 76.7249 259° West  Level Estimated
06:31PM 32.1631 76.6003 259° West  Level Estimated
06:32PM 32.1424 76.4757 259° West  Level Estimated
06:33PM 32.1216 76.3512 259° West  Level Estimated
06:34PM 32.1006 76.2268 259° West  Level Estimated
06:35PM 32.0795 76.1024 259° West  Level Estimated
06:36PM 32.0583 75.9781 259° West  Level Estimated
06:37PM 32.0370 75.8539 259° West  Level Estimated
06:38PM 32.0156 75.7297 259° West  Level Estimated
06:39PM 31.9940 75.6056 258° West  Level Estimated
06:40PM 31.9723 75.4815 258° West  Level Estimated
06:41PM 31.9505 75.3575 258° West  Level Estimated
06:42PM 31.9286 75.2335 258° West  Level Estimated
06:43PM 31.9066 75.1096 258° West  Level Estimated
06:44PM 31.8844 74.9857 258° West  Level Estimated
06:45PM 31.8621 74.8620 258° West  Level Estimated
06:46PM 31.8397 74.7382 258° West  Level Estimated
06:47PM 31.8172 74.6146 258° West  Level Estimated
06:48PM 31.7946 74.4910 258° West  Level Estimated
06:49PM 31.7718 74.3674 258° West  Level Estimated
06:50PM 31.7489 74.2439 258° West  Level Estimated
06:51PM 31.7259 74.1205 258° West  Level Estimated
06:52PM 31.7028 73.9972 258° West  Level Estimated
06:53PM 31.6796 73.8739 258° West  Level Estimated
06:54PM 31.6562 73.7506 257° West  Level Estimated
06:55PM 31.6327 73.6275 257° West  Level Estimated
06:56PM 31.6091 73.5044 257° West  Level Estimated
06:57PM 31.5854 73.3813 257° West  Level Estimated
06:58PM 31.5616 73.2583 257° West  Level Estimated
06:59PM 31.5377 73.1354 257° West  Level Estimated
07:00PM 31.5136 73.0126 257° West  Level Estimated
07:01PM 31.4894 72.8897 257° West  Level Estimated
07:02PM 31.4651 72.7670 257° West  Level Estimated
07:03PM 31.4407 72.6443 257° West  Level Estimated
07:04PM 31.4162 72.5218 257° West  Level Estimated
07:05PM 31.3915 72.3992 257° West  Level Estimated
07:06PM 31.3668 72.2767 257° West  Level Estimated
07:07PM 31.3419 72.1543 257° West  Level Estimated
07:08PM 31.3169 72.0320 257° West  Level Estimated
07:09PM 31.2918 71.9097 257° West  Level Estimated
07:10PM 31.2666 71.7875 256° West  Level Estimated
07:11PM 31.2412 71.6653 256° West  Level Estimated
07:12PM 31.2157 71.5433 256° West  Level Estimated
07:13PM 31.1902 71.4212 256° West  Level Estimated
07:14PM 31.1645 71.2993 256° West  Level Estimated
07:15PM 31.1387 71.1774 256° West  Level Estimated
07:16PM 31.1128 71.0556 256° West  Level Estimated
07:17PM 31.0867 70.9338 256° West  Level Estimated
07:18PM 31.0606 70.8121 256° West  Level Estimated
07:19PM 31.0343 70.6905 256° West  Level Estimated
07:20PM 31.0079 70.5690 256° West  Level Estimated
07:21PM 30.9814 70.4475 256° West  Level Estimated
07:22PM 30.9548 70.3261 256° West  Level Estimated
07:23PM 30.9281 70.2047 256° West  Level Estimated
07:24PM 30.9013 70.0834 256° West  Level Estimated
07:25PM 30.8743 69.9622 256° West  Level Estimated
07:26PM 30.8473 69.8411 255° West  Level Estimated
07:27PM 30.8201 69.7200 255° West  Level Estimated
07:28PM 30.7929 69.5990 255° West  Level Estimated
07:29PM 30.7654 69.4781 255° West  Level Estimated
07:30PM 30.7379 69.3572 255° West  Level Estimated
07:31PM 30.7103 69.2364 255° West  Level Estimated
07:32PM 30.6826 69.1156 255° West  Level Estimated
07:33PM 30.6548 68.9950 255° West  Level Estimated
07:34PM 30.6268 68.8744 255° West  Level Estimated
07:35PM 30.5987 68.7539 255° West  Level Estimated
07:36PM 30.5706 68.6334 255° West  Level Estimated
07:37PM 30.5423 68.5130 255° West  Level Estimated
07:38PM 30.5139 68.3927 255° West  Level Estimated
07:39PM 30.4854 68.2725 255° West  Level Estimated
07:40PM 30.4568 68.1523 255° West  Level Estimated
07:41PM 30.4280 68.0322 255° West  Level Estimated
07:42PM 30.3992 67.9122 254° West  Level Estimated
07:43PM 30.3703 67.7922 254° West  Level Estimated
07:44PM 30.3412 67.6723 254° West  Level Estimated
07:45PM 30.3120 67.5525 254° West  Level Estimated
07:46PM 30.2828 67.4328 254° West  Level Estimated
07:47PM 30.2534 67.3131 254° West  Level Estimated
07:48PM 30.2239 67.1935 254° West  Level Estimated
07:49PM 30.1943 67.0740 254° West  Level Estimated
07:50PM 30.1646 66.9545 254° West  Level Estimated
07:51PM 30.1348 66.8351 254° West  Level Estimated
07:52PM 30.1048 66.7158 254° West  Level Estimated
07:53PM 30.0748 66.5966 254° West  Level Estimated
07:54PM 30.0447 66.4774 254° West  Level Estimated
07:55PM 30.0144 66.3583 254° West  Level Estimated
07:56PM 29.9841 66.2393 254° West  Level Estimated
07:57PM 29.9536 66.1203 254° West  Level Estimated
07:58PM 29.9230 66.0015 254° West  Level Estimated
07:59PM 29.8923 65.8827 253° West  Level Estimated
08:00PM 29.8616 65.7639 253° West  Level Estimated
08:01PM 29.8307 65.6453 253° West  Level Estimated
08:02PM 29.7997 65.5267 253° West  Level Estimated
08:03PM 29.7686 65.4082 253° West  Level Estimated
08:04PM 29.7374 65.2897 253° West  Level Estimated
08:05PM 29.7061 65.1714 253° West  Level Estimated
08:06PM 29.6747 65.0531 253° West  Level Estimated
08:07PM 29.6431 64.9349 253° West  Level Estimated
08:08PM 29.6115 64.8167 253° West  Level Estimated
08:09PM 29.5798 64.6987 253° West  Level Estimated
08:10PM 29.5480 64.5807 253° West  Level Estimated
08:11PM 29.5160 64.4628 253° West  Level Estimated
08:12PM 29.4840 64.3449 253° West  Level Estimated
08:13PM 29.4518 64.2271 253° West  Level Estimated
08:14PM 29.4196 64.1095 253° West  Level Estimated
08:15PM 29.3872 63.9918 253° West  Level Estimated
08:16PM 29.3548 63.8743 252° West  Level Estimated
08:17PM 29.3222 63.7568 252° West  Level Estimated
08:18PM 29.2895 63.6394 252° West  Level Estimated
08:19PM 29.2568 63.5221 252° West  Level Estimated
08:20PM 29.2239 63.4049 252° West  Level Estimated
08:21PM 29.1909 63.2877 252° West  Level Estimated
08:22PM 29.1579 63.1706 252° West  Level Estimated
08:23PM 29.1247 63.0536 252° West  Level Estimated
08:24PM 29.0914 62.9366 252° West  Level Estimated
08:25PM 29.0581 62.8198 252° West  Level Estimated
08:26PM 29.0246 62.7030 252° West  Level Estimated
08:27PM 28.9910 62.5863 252° West  Level Estimated
08:28PM 28.9573 62.4696 252° West  Level Estimated
08:29PM 28.9235 62.3531 252° West  Level Estimated
08:30PM 28.8897 62.2366 252° West  Level Estimated
08:31PM 28.8557 62.1202 252° West  Level Estimated
08:32PM 28.8216 62.0038 252° West  Level Estimated
08:33PM 28.7874 61.8876 251° West  Level Estimated
08:34PM 28.7531 61.7714 251° West  Level Estimated
08:35PM 28.7188 61.6553 251° West  Level Estimated
08:36PM 28.6843 61.5393 251° West  Level Estimated
08:37PM 28.6497 61.4233 251° West  Level Estimated
08:38PM 28.6150 61.3074 251° West  Level Estimated
08:39PM 28.5803 61.1916 251° West  Level Estimated
08:40PM 28.5454 61.0759 251° West  Level Estimated
08:41PM 28.5104 60.9603 251° West  Level Estimated
08:42PM 28.4753 60.8447 251° West  Level Estimated
08:43PM 28.4402 60.7292 251° West  Level Estimated
08:44PM 28.4049 60.6138 251° West  Level Estimated
08:45PM 28.3696 60.4984 251° West  Level Estimated
08:46PM 28.3341 60.3832 251° West  Level Estimated
08:47PM 28.2986 60.2680 251° West  Level Estimated
08:48PM 28.2629 60.1529 251° West  Level Estimated
08:49PM 28.2272 60.0379 251° West  Level Estimated
08:50PM 28.1913 59.9229 251° West  Level Estimated
08:51PM 28.1554 59.8080 250° West  Level Estimated
08:52PM 28.1194 59.6932 250° West  Level Estimated
08:53PM 28.0832 59.5785 250° West  Level Estimated
08:54PM 28.0470 59.4639 250° West  Level Estimated
08:55PM 28.0107 59.3493 250° West  Level Estimated
08:56PM 27.9743 59.2348 250° West  Level Estimated
08:57PM 27.9377 59.1204 250° West  Level Estimated
08:58PM 27.9011 59.0061 250° West  Level Estimated
08:59PM 27.8645 58.8918 250° West  Level Estimated
09:00PM 27.8277 58.7776 250° West  Level Estimated
09:01PM 27.7908 58.6635 250° West  Level Estimated
09:02PM 27.7538 58.5495 250° West  Level Estimated
09:03PM 27.7167 58.4355 250° West  Level Estimated
09:04PM 27.6796 58.3217 250° West  Level Estimated
09:05PM 27.6423 58.2079 250° West  Level Estimated
09:06PM 27.6049 58.0942 250° West  Level Estimated
09:07PM 27.5675 57.9805 250° West  Level Estimated
09:08PM 27.5299 57.8670 250° West  Level Estimated
09:09PM 27.4923 57.7535 250° West  Level Estimated
09:10PM 27.4546 57.6401 249° West  Level Estimated
09:11PM 27.4168 57.5267 249° West  Level Estimated
09:12PM 27.3789 57.4135 249° West  Level Estimated
09:13PM 27.3409 57.3003 249° West  Level Estimated
09:14PM 27.3028 57.1872 249° West  Level Estimated
09:15PM 27.2646 57.0742 249° West  Level Estimated
09:16PM 27.2264 56.9613 249° West  Level Estimated
09:17PM 27.1880 56.8484 249° West  Level Estimated
09:18PM 27.1495 56.7356 249° West  Level Estimated
09:19PM 27.1110 56.6229 249° West  Level Estimated
09:20PM 27.0724 56.5103 249° West  Level Estimated
09:21PM 27.0336 56.3977 249° West  Level Estimated
09:22PM 26.9948 56.2853 249° West  Level Estimated
09:23PM 26.9559 56.1729 249° West  Level Estimated
09:24PM 26.9170 56.0606 249° West  Level Estimated
09:25PM 26.8779 55.9483 249° West  Level Estimated
09:26PM 26.8387 55.8362 249° West  Level Estimated
09:27PM 26.7995 55.7241 249° West  Level Estimated
09:28PM 26.7601 55.6121 249° West  Level Estimated
09:29PM 26.7207 55.5001 248° West  Level Estimated
09:30PM 26.6812 55.3883 248° West  Level Estimated
09:31PM 26.6416 55.2765 248° West  Level Estimated
09:32PM 26.6019 55.1648 248° West  Level Estimated
09:33PM 26.5621 55.0532 248° West  Level Estimated
09:34PM 26.5222 54.9417 248° West  Level Estimated
09:35PM 26.4823 54.8302 248° West  Level Estimated
09:36PM 26.4422 54.7188 248° West  Level Estimated
09:37PM 26.4021 54.6075 248° West  Level Estimated
09:38PM 26.3619 54.4963 248° West  Level Estimated
09:39PM 26.3216 54.3851 248° West  Level Estimated
09:40PM 26.2812 54.2740 248° West  Level Estimated
09:41PM 26.2408 54.1630 248° West  Level Estimated
09:42PM 26.2002 54.0521 248° West  Level Estimated
09:43PM 26.1596 53.9413 248° West  Level Estimated
09:44PM 26.1188 53.8305 248° West  Level Estimated
09:45PM 26.0780 53.7198 248° West  Level Estimated
09:46PM 26.0371 53.6092 248° West  Level Estimated
09:47PM 25.9962 53.4987 248° West  Level Estimated
09:48PM 25.9551 53.3882 248° West  Level Estimated
09:49PM 25.9140 53.2778 248° West  Level Estimated
09:50PM 25.8727 53.1675 247° West  Level Estimated
09:51PM 25.8314 53.0573 247° West  Level Estimated
09:52PM 25.7900 52.9471 247° West  Level Estimated
09:53PM 25.7486 52.8371 247° West  Level Estimated
09:54PM 25.7070 52.7271 247° West  Level Estimated
09:55PM 25.6653 52.6171 247° West  Level Estimated
09:56PM 25.6236 52.5073 247° West  Level Estimated
09:57PM 25.5818 52.3975 247° West  Level Estimated
09:58PM 25.5399 52.2879 247° West  Level Estimated
09:59PM 25.4980 52.1782 247° West  Level Estimated
10:00PM 25.4559 52.0687 247° West  Level Estimated
10:01PM 25.4138 51.9593 247° West  Level Estimated
10:02PM 25.3716 51.8499 247° West  Level Estimated
10:03PM 25.3293 51.7406 247° West  Level Estimated
10:04PM 25.2869 51.6313 247° West  Level Estimated
10:05PM 25.2611 51.5651 247° West  Level Estimated
10:06PM 25.2611 51.5651 North  Level Estimated
10:07PM 25.2611 51.5651 North  Level Estimated
10:08PM 25.2611 51.5651 North  Level Estimated
10:09PM 25.2611 51.5651 North  Level Estimated
10:10PM 25.2611 51.5651 North  Level Estimated
10:11PM 25.2611 51.5651 North  Level Estimated
10:12PM 25.2611 51.5651 North  Level Estimated
10:13PM 25.2611 51.5651 North  Level Estimated

Login

Don't have an account? Register now (free) for customized features, flight alerts, and more!